Locke, California
Current Conditions -  °F | °C
As of 12:58 AM on Wednesday 28 Jan 2015 (Local Time) from KSUU Reporting Station
Broken Clouds Broken Clouds  
Wind Chill: 44°   Ceiling: 13000
Heat Index: 47°   Visibility: 8mi
Dew Point: 46°   Wind: 7mph
Humidity: 95%   Direction: 10°N
Pressure: 30.24"   Gusts: NA
Location:  38.2298°N, 121.579°W
Report Text: KSUU 280858Z AUTO 01006KT 8SM BKN130 08/08 A3024 RMK AO2 SLP247 T00840077 58003 $
Loading
Personal Weather Stations






























Interactive Weather Map New forecast layout! Learn more

10-Day Weather Forecast

Advertisements
Track Severe Weather on mobile